Sahagun, Spain
Current Conditions -  °F | °C
As of 9:00 PM on Sunday 23 Nov 2014 (Local Time) from LELN Reporting Station
Broken Clouds Broken Clouds  
Wind Chill: 10°   Ceiling: 4000
Heat Index: 10°   Visibility: 6mi
Dew Point:   Wind: 2mph
Humidity: 94%   Direction: 350°N
Pressure: 30"   Gusts: NA
Location:  42.37°N, 5.03°W
Report Text: LELN 232000Z 35002KT 9999 BKN040 10/09 Q1016
Loading
Personal Weather Stations






























Interactive Weather Map New forecast layout! Learn more

10-Day Weather Forecast

Advertisements
Track Severe Weather on mobile